Time;durP1;ratioP1;P1;durP2;ratioP2;P2;SDS_P1;SDS_P2;PMS_P1;PMS_P2;Temp;Humidity;BMP_temperature;BMP_pressure;BME280_temperature;BME280_humidity;BME280_pressure;Samples;Min_cycle;Max_cycle;Signal;HPM_P1;HPM_P2
2021/07/12 00:00:22;;;;;;;;;6.00;6.00;;;;;22.91;52.92;100566.75;5080105;27;45345;-47
2021/07/12 00:02:51;;;;;;;;;5.00;5.00;;;;;22.89;52.55;100553.31;5074034;27;47478;-49
2021/07/12 00:05:18;;;;;;;;;4.00;4.00;;;;;22.86;53.02;100547.25;5079057;27;45519;-47
2021/07/12 00:07:44;;;;;;;;;3.67;3.67;;;;;22.83;53.09;100550.22;5079300;27;45334;-50
2021/07/12 00:10:12;;;;;;;;;6.00;5.50;;;;;22.82;52.92;100540.34;5061048;28;45668;-49
2021/07/12 00:12:39;;;;;;;;;4.00;4.00;;;;;22.79;52.90;100533.31;5060489;27;47726;-48
2021/07/12 00:15:07;;;;;;;;;4.67;4.67;;;;;22.77;53.31;100526.31;5079436;27;45349;-49
2021/07/12 00:17:32;;;;;;;;;5.00;5.00;;;;;22.74;53.03;100522.00;5078613;27;45361;-49
2021/07/12 00:19:58;;;;;;;;;5.75;5.00;;;;;22.73;53.27;100516.66;5068525;27;45382;-46
2021/07/12 00:22:24;;;;;;;;;6.00;6.00;;;;;22.70;53.47;100506.94;5061050;28;48204;-46
2021/07/12 00:24:49;;;;;;;;;4.00;4.00;;;;;22.68;53.70;100491.81;5061200;28;45792;-47
2021/07/12 00:27:15;;;;;;;;;5.00;5.00;;;;;22.67;53.17;100493.66;5079980;27;45691;-51
2021/07/12 00:29:40;;;;;;;;;4.00;4.00;;;;;22.66;53.56;100497.34;5080089;27;45378;-45
2021/07/12 00:32:07;;;;;;;;;4.75;4.75;;;;;22.64;53.69;100496.59;5060379;27;46553;-48
2021/07/12 00:34:32;;;;;;;;;4.50;4.50;;;;;22.61;53.63;100486.00;5060835;27;45476;-48
2021/07/12 00:36:58;;;;;;;;;6.33;4.67;;;;;22.61;53.82;100488.69;5060963;27;45501;-46
2021/07/12 00:39:24;;;;;;;;;4.33;4.33;;;;;22.59;53.74;100487.97;5078882;27;45373;-49
2021/07/12 00:41:50;;;;;;;;;9.50;8.75;;;;;22.56;54.02;100489.06;5078354;27;48157;-47
2021/07/12 00:44:16;;;;;;;;;5.50;5.25;;;;;22.55;54.02;100508.97;5060593;28;45694;-49
2021/07/12 00:46:41;;;;;;;;;6.00;6.00;;;;;22.53;54.15;100519.03;5078269;27;45427;-50
2021/07/12 00:49:07;;;;;;;;;4.25;4.25;;;;;22.52;53.67;100533.53;5079139;27;45422;-48
2021/07/12 00:51:32;;;;;;;;;5.00;5.00;;;;;22.52;54.01;100528.13;5078526;27;47857;-51
2021/07/12 00:53:58;;;;;;;;;4.00;3.33;;;;;22.51;54.21;100534.53;5078731;27;45338;-51
2021/07/12 00:56:24;;;;;;;;;7.33;5.67;;;;;22.51;54.09;100536.38;5059339;27;45310;-52
2021/07/12 00:58:49;;;;;;;;;5.00;5.00;;;;;22.49;54.17;100543.75;5078131;27;45428;-47
2021/07/12 01:01:15;;;;;;;;;5.00;5.00;;;;;22.47;53.98;100546.53;5074250;27;47441;-50
2021/07/12 01:03:41;;;;;;;;;6.00;5.00;;;;;22.46;54.13;100541.22;5078676;27;45240;-48
2021/07/12 01:06:06;;;;;;;;;6.33;6.33;;;;;22.43;54.19;100536.06;5078856;27;45869;-47
2021/07/12 01:08:32;;;;;;;;;5.00;5.00;;;;;22.42;54.35;100532.50;5057558;28;45319;-47
2021/07/12 01:11:13;;;;;;;;;5.00;5.00;;;;;22.41;54.17;100522.66;5056731;27;48046;-50
2021/07/12 01:13:44;;;;;;;;;4.00;4.00;;;;;22.42;54.37;100521.69;5078837;27;45285;-48
2021/07/12 01:16:24;;;;;;;;;5.00;4.50;;;;;22.42;54.50;100518.13;5078703;27;45425;-46
2021/07/12 01:19:00;;;;;;;;;5.00;5.00;;;;;22.41;54.88;100509.13;5058062;28;45547;-47
2021/07/12 01:21:43;;;;;;;;;6.00;6.00;;;;;22.42;54.29;100502.75;5067546;27;45541;-49
2021/07/12 01:24:43;;;;;;;;;5.75;5.75;;;;;22.44;54.80;100495.38;5058952;28;45453;-48
2021/07/12 01:27:42;;;;;;;;;6.25;5.50;;;;;22.45;54.32;100478.19;5070784;27;45480;-45
2021/07/12 01:30:29;;;;;;;;;4.33;4.33;;;;;22.46;54.68;100476.34;5089473;27;45608;-48
2021/07/12 01:33:03;;;;;;;;;7.50;6.75;;;;;22.46;54.52;100466.38;5058406;28;48366;-46
2021/07/12 01:35:53;;;;;;;;;6.00;6.00;;;;;22.48;54.77;100460.84;5059821;28;46126;-46
2021/07/12 01:38:36;;;;;;;;;6.75;5.25;;;;;22.49;54.75;100455.34;5057743;27;45533;-46
2021/07/12 01:41:31;;;;;;;;;4.00;4.00;;;;;22.51;54.28;100447.13;5059822;28;45442;-46
2021/07/12 01:44:11;;;;;;;;;5.50;5.00;;;;;22.52;54.57;100438.03;5076115;27;47557;-48
2021/07/12 01:46:46;;;;;;;;;6.67;5.33;;;;;22.51;54.41;100431.75;5080845;27;45349;-48
2021/07/12 01:49:23;;;;;;;;;6.50;6.50;;;;;22.52;54.74;100447.00;5081916;27;45405;-49
2021/07/12 01:52:02;;;;;;;;;5.00;5.00;;;;;22.53;54.88;100442.47;5081491;27;45388;-50
2021/07/12 01:55:16;;;;;;;;;7.00;6.00;;;;;22.54;54.85;100431.53;5059855;28;46328;-49
2021/07/12 01:58:07;;;;;;;;;7.75;7.75;;;;;22.55;54.80;100432.38;5055831;27;45417;-49
2021/07/12 02:00:34;;;;;;;;;6.00;6.00;;;;;22.56;54.24;100431.41;5081161;27;45340;-48
2021/07/12 02:03:02;;;;;;;;;6.25;5.25;;;;;22.56;54.85;100429.56;5060201;27;45889;-50
2021/07/12 02:05:32;;;;;;;;;6.00;6.00;;;;;22.56;54.55;100429.56;5081510;27;45389;-50
2021/07/12 02:08:00;;;;;;;;;4.00;4.00;;;;;22.58;54.66;100432.13;5081471;27;45433;-48
2021/07/12 02:10:28;;;;;;;;;5.00;5.00;;;;;22.59;54.38;100434.72;5081253;27;45424;-46
2021/07/12 02:12:55;;;;;;;;;7.67;6.00;;;;;22.60;54.08;100438.28;5080786;27;45557;-49
2021/07/12 02:15:21;;;;;;;;;4.67;4.67;;;;;22.60;54.65;100443.69;5081124;27;47019;-50
2021/07/12 02:17:50;;;;;;;;;5.25;5.25;;;;;22.60;54.35;100444.56;5080809;27;46045;-49
2021/07/12 02:20:18;;;;;;;;;4.25;4.25;;;;;22.60;54.20;100444.56;5081169;27;45348;-48
2021/07/12 02:22:46;;;;;;;;;5.75;5.75;;;;;22.61;54.26;100442.72;5080390;27;45543;-49
2021/07/12 02:25:14;;;;;;;;;5.50;5.50;;;;;22.60;54.27;100449.09;5080521;27;48499;-47
2021/07/12 02:27:43;;;;;;;;;4.25;4.25;;;;;22.59;54.13;100452.78;5063315;28;45461;-50
2021/07/12 02:30:09;;;;;;;;;6.00;5.00;;;;;22.58;54.25;100453.78;5081830;27;45420;-48
2021/07/12 02:32:36;;;;;;;;;5.75;5.00;;;;;22.58;54.76;100454.63;5080052;27;45267;-49
2021/07/12 02:35:08;;;;;;;;;6.00;6.00;;;;;22.59;54.53;100463.63;5059260;28;47102;-46
2021/07/12 02:37:39;;;;;;;;;4.00;3.50;;;;;22.60;54.50;100468.91;5077097;27;45361;-46
2021/07/12 02:40:10;;;;;;;;;4.50;4.50;;;;;22.61;54.26;100462.53;5080770;28;45483;-49
2021/07/12 02:42:39;;;;;;;;;4.00;4.00;;;;;22.61;54.65;100454.44;5081100;27;45583;-50
2021/07/12 02:45:07;;;;;;;;;5.00;5.00;;;;;22.63;54.79;100453.44;5062605;27;45435;-48
2021/07/12 02:47:37;;;;;;;;;4.75;4.75;;;;;22.63;54.58;100453.44;5080933;27;45323;-50
2021/07/12 02:50:05;;;;;;;;;4.67;4.67;;;;;22.61;54.66;100437.31;5080837;27;45425;-51
2021/07/12 02:52:42;;;;;;;;;4.00;4.00;;;;;22.62;54.55;100439.06;5059354;28;45640;-46
2021/07/12 02:55:08;;;;;;;;;6.00;6.00;;;;;22.63;54.70;100434.50;5061074;27;45867;-49
2021/07/12 02:57:33;;;;;;;;;6.00;4.67;;;;;22.63;55.00;100426.41;5080347;28;45378;-50
2021/07/12 02:59:59;;;;;;;;;4.00;4.00;;;;;22.63;55.18;100415.59;5062309;27;45703;-47
2021/07/12 03:02:25;;;;;;;;;4.00;4.00;;;;;22.63;54.85;100418.28;5075538;27;45612;-48
2021/07/12 03:04:51;;;;;;;;;5.00;5.00;;;;;22.64;54.88;100414.59;5080088;27;47772;-50
2021/07/12 03:07:35;;;;;;;;;4.00;4.00;;;;;22.63;55.24;100402.91;5062468;28;45396;-51
2021/07/12 03:10:07;;;;;;;;;5.00;5.00;;;;;22.61;55.34;100403.03;5080669;27;45370;-47
2021/07/12 03:12:50;;;;;;;;;6.00;6.00;;;;;22.61;55.02;100399.44;5080627;27;45290;-49
2021/07/12 03:15:19;;;;;;;;;5.00;5.00;;;;;22.59;55.33;100394.16;5052555;28;47461;-48
2021/07/12 03:17:51;;;;;;;;;6.75;6.75;;;;;22.58;54.80;100408.66;5080305;27;45512;-50
2021/07/12 03:20:18;;;;;;;;;4.00;4.00;;;;;22.59;54.47;100406.81;5080898;27;45325;-49
2021/07/12 03:22:49;;;;;;;;;3.33;3.33;;;;;22.58;54.99;100403.25;5083093;27;45236;-46
2021/07/12 03:25:21;;;;;;;;;3.67;3.67;;;;;22.56;54.64;100389.00;5080477;27;48203;-51
2021/07/12 03:27:47;;;;;;;;;4.00;4.00;;;;;22.57;54.15;100387.16;5080985;27;45609;-48
2021/07/12 03:30:13;;;;;;;;;3.33;3.33;;;;;22.57;54.23;100373.63;5062898;28;45509;-48
2021/07/12 03:32:43;;;;;;;;;3.00;3.00;;;;;22.56;54.64;100359.25;5061576;28;45687;-50
2021/07/12 03:35:10;;;;;;;;;3.00;3.00;;;;;22.57;54.35;100354.69;5079877;27;47288;-48
2021/07/12 03:37:36;;;;;;;;;3.00;3.00;;;;;22.55;54.26;100346.69;5079370;27;45618;-47
2021/07/12 03:40:03;;;;;;;;;3.67;3.67;;;;;22.57;54.09;100339.31;5061798;27;45742;-48
2021/07/12 03:42:28;;;;;;;;;3.25;3.25;;;;;22.56;54.26;100336.75;5079658;27;45423;-47
2021/07/12 03:44:54;;;;;;;;;3.25;3.00;;;;;22.57;54.37;100341.16;5051295;28;45450;-51
2021/07/12 03:47:28;;;;;;;;;3.25;3.25;;;;;22.55;54.03;100344.00;5079237;27;45581;-47
2021/07/12 03:50:02;;;;;;;;;3.00;3.00;;;;;22.54;54.34;100347.69;5080063;27;45361;-46
2021/07/12 03:52:32;;;;;;;;;4.00;4.00;;;;;22.53;54.54;100353.22;5079728;27;45346;-46
2021/07/12 03:54:57;;;;;;;;;2.00;2.00;;;;;22.52;54.08;100362.31;5079148;27;47142;-49
2021/07/12 03:57:23;;;;;;;;;2.50;2.50;;;;;22.52;54.14;100357.75;5079705;27;45387;-46
2021/07/12 03:59:48;;;;;;;;;3.50;3.50;;;;;22.52;54.31;100360.47;5079438;27;45672;-47
2021/07/12 04:02:14;;;;;;;;;5.75;5.75;;;;;22.51;54.07;100358.75;5073383;27;45525;-49
2021/07/12 04:04:39;;;;;;;;;3.67;3.67;;;;;22.50;53.79;100350.75;5078876;27;48132;-51
2021/07/12 04:07:05;;;;;;;;;5.00;4.25;;;;;22.49;54.22;100341.78;5079309;27;45381;-49
2021/07/12 04:09:30;;;;;;;;;3.50;3.50;;;;;22.49;54.44;100346.31;5079475;28;45192;-48
2021/07/12 04:11:57;;;;;;;;;5.00;4.00;;;;;22.49;54.28;100341.78;5061735;28;45659;-47
2021/07/12 04:14:23;;;;;;;;;5.00;5.00;;;;;22.48;54.53;100337.31;5060715;28;48236;-48
2021/07/12 04:16:48;;;;;;;;;5.25;5.25;;;;;22.48;54.68;100331.06;5078417;28;45369;-48
2021/07/12 04:19:14;;;;;;;;;4.25;4.00;;;;;22.48;54.55;100344.56;5078698;27;45623;-49
2021/07/12 04:21:39;;;;;;;;;5.00;5.00;;;;;22.47;54.15;100353.66;5079238;27;45566;-49
2021/07/12 04:24:05;;;;;;;;;4.50;4.00;;;;;22.47;54.46;100353.66;5078955;27;45367;-48
2021/07/12 04:26:30;;;;;;;;;5.00;5.00;;;;;22.46;54.25;100355.50;5080250;27;45450;-50
2021/07/12 04:28:56;;;;;;;;;4.25;3.50;;;;;22.45;54.58;100352.94;5079495;27;45354;-51
2021/07/12 04:31:21;;;;;;;;;4.75;4.75;;;;;22.46;54.41;100354.66;5078859;27;45629;-50
2021/07/12 04:33:46;;;;;;;;;3.50;3.50;;;;;22.46;54.49;100360.06;5068228;28;48457;-47
2021/07/12 04:36:13;;;;;;;;;4.75;4.75;;;;;22.45;54.69;100364.59;5060501;28;45295;-50
2021/07/12 04:38:39;;;;;;;;;4.25;4.00;;;;;22.44;54.32;100360.19;5060428;28;45339;-50
2021/07/12 04:41:05;;;;;;;;;4.75;4.75;;;;;22.44;54.43;100365.59;5078680;27;45346;-48
2021/07/12 04:43:30;;;;;;;;;3.50;3.50;;;;;22.43;54.63;100368.41;5078583;27;46529;-46
2021/07/12 04:45:56;;;;;;;;;4.50;3.75;;;;;22.42;54.71;100362.16;5077402;28;45697;-50
2021/07/12 04:48:21;;;;;;;;;4.00;4.00;;;;;22.44;54.34;100365.59;5078671;27;45429;-51
2021/07/12 04:50:47;;;;;;;;;4.50;4.50;;;;;22.45;54.58;100361.91;5078529;27;45460;-48
2021/07/12 04:53:12;;;;;;;;;4.00;4.00;;;;;22.45;54.65;100363.75;5062134;28;46066;-48
2021/07/12 04:55:38;;;;;;;;;6.00;6.00;;;;;22.46;54.31;100366.31;5078233;27;45278;-50
2021/07/12 04:58:03;;;;;;;;;9.50;9.50;;;;;22.46;54.40;100362.75;5078302;27;45446;-49
2021/07/12 05:00:29;;;;;;;;;6.25;6.25;;;;;22.46;54.49;100368.16;5075734;27;46352;-49
2021/07/12 05:02:54;;;;;;;;;4.75;4.75;;;;;22.44;54.29;100359.31;5057140;28;47240;-51
2021/07/12 05:05:20;;;;;;;;;4.67;4.67;;;;;22.44;54.29;100367.44;5057402;28;45389;-51
2021/07/12 05:07:46;;;;;;;;;5.50;4.75;;;;;22.45;54.55;100366.44;5056849;28;45607;-49
2021/07/12 05:10:12;;;;;;;;;6.75;5.50;;;;;22.46;54.48;100358.22;5058512;28;45483;-47
2021/07/12 05:12:38;;;;;;;;;4.25;4.25;;;;;22.46;54.65;100354.66;5057603;28;47960;-48
2021/07/12 05:15:07;;;;;;;;;5.00;4.00;;;;;22.46;54.78;100346.53;5057811;28;45326;-47
2021/07/12 05:17:32;;;;;;;;;6.75;6.00;;;;;22.47;54.40;100345.56;5058193;28;45572;-47
2021/07/12 05:19:58;;;;;;;;;3.25;3.25;;;;;22.46;54.70;100342.00;5058840;28;45540;-47
2021/07/12 05:22:25;;;;;;;;;4.00;4.00;;;;;22.45;54.78;100326.75;5058369;28;47338;-48
2021/07/12 05:24:52;;;;;;;;;4.00;4.00;;;;;22.46;54.55;100328.47;5058258;28;45462;-47
2021/07/12 05:27:17;;;;;;;;;4.75;4.75;;;;;22.47;54.92;100323.94;5058949;28;45378;-47
2021/07/12 05:29:43;;;;;;;;;6.00;4.33;;;;;22.47;54.56;100321.22;5040660;28;45265;-49
2021/07/12 05:32:08;;;;;;;;;5.00;5.00;;;;;22.49;54.48;100324.69;5045752;28;45353;-46
2021/07/12 05:34:34;;;;;;;;;4.33;4.33;;;;;22.49;54.34;100327.41;5057945;28;45485;-46
2021/07/12 05:36:59;;;;;;;;;5.00;5.00;;;;;22.48;54.31;100326.50;5058809;28;45326;-49
2021/07/12 05:39:25;;;;;;;;;6.00;6.00;;;;;22.50;54.51;100323.72;5076011;28;45547;-50
2021/07/12 05:41:50;;;;;;;;;4.33;4.33;;;;;22.49;54.50;100319.28;5078018;28;47097;-47
2021/07/12 05:44:16;;;;;;;;;3.33;3.33;;;;;22.48;54.26;100326.50;5059569;28;45248;-50
2021/07/12 05:46:41;;;;;;;;;5.00;5.00;;;;;22.48;54.43;100329.22;5074386;28;45632;-50
2021/07/12 05:49:07;;;;;;;;;5.00;5.00;;;;;22.48;54.27;100322.94;5056935;28;45672;-47
2021/07/12 05:51:33;;;;;;;;;4.67;4.67;;;;;22.47;54.46;100322.09;5077618;27;48131;-47
2021/07/12 05:53:58;;;;;;;;;3.00;3.00;;;;;22.47;54.23;100332.03;5077208;27;45767;-49
2021/07/12 05:56:24;;;;;;;;;5.00;5.00;;;;;22.46;54.79;100327.63;5077862;27;45472;-47
2021/07/12 05:58:49;;;;;;;;;5.00;5.00;;;;;22.43;54.71;100327.84;5059748;28;45324;-48
2021/07/12 06:01:16;;;;;;;;;5.00;4.00;;;;;22.44;54.38;100335.00;5059284;28;47202;-47
2021/07/12 06:03:42;;;;;;;;;5.00;5.00;;;;;22.42;54.90;100327.00;5077959;27;45216;-50
2021/07/12 06:06:08;;;;;;;;;4.67;4.67;;;;;22.42;55.22;100320.72;5078286;28;45687;-46
2021/07/12 06:08:34;;;;;;;;;6.67;6.00;;;;;22.40;55.25;100320.84;5078205;27;45277;-46
2021/07/12 06:10:59;;;;;;;;;5.00;5.00;;;;;22.40;55.06;100318.16;5077478;27;48302;-46
2021/07/12 06:13:25;;;;;;;;;5.00;5.00;;;;;22.40;54.88;100311.88;5078232;27;45365;-45
2021/07/12 06:15:50;;;;;;;;;6.33;6.33;;;;;22.41;55.52;100317.16;5078419;27;45350;-44
2021/07/12 06:18:16;;;;;;;;;5.00;5.00;;;;;22.40;55.57;100311.88;5040101;27;45773;-48
2021/07/12 06:20:43;;;;;;;;;5.67;5.67;;;;;22.40;55.20;100312.75;5077595;27;47328;-49
2021/07/12 06:23:09;;;;;;;;;5.67;4.33;;;;;22.40;55.35;100318.16;5077592;27;45349;-47
2021/07/12 06:25:35;;;;;;;;;6.33;6.33;;;;;22.41;55.45;100319.00;5079836;27;45398;-47
2021/07/12 06:28:00;;;;;;;;;4.67;4.33;;;;;22.40;55.21;100315.44;5062934;27;45593;-49
2021/07/12 06:30:26;;;;;;;;;6.00;4.33;;;;;22.40;55.60;100309.19;5079256;27;48038;-49
2021/07/12 06:32:51;;;;;;;;;4.67;4.00;;;;;22.41;55.56;100317.16;5061580;27;45673;-50
2021/07/12 06:35:17;;;;;;;;;7.00;7.00;;;;;22.41;55.83;100317.16;5081443;27;45295;-49
2021/07/12 06:37:42;;;;;;;;;6.67;6.67;;;;;22.40;55.86;100304.63;5065404;27;45406;-46
2021/07/12 06:40:09;;;;;;;;;6.00;5.67;;;;;22.39;56.16;100288.53;5080401;27;48072;-47
2021/07/12 06:42:34;;;;;;;;;7.67;7.67;;;;;22.39;56.01;100288.53;5079904;27;45725;-50
2021/07/12 06:45:00;;;;;;;;;5.33;5.33;;;;;22.38;56.22;100284.09;5064481;28;45310;-49
2021/07/12 06:47:26;;;;;;;;;4.67;4.33;;;;;22.37;56.74;100283.25;5080051;27;45406;-49
2021/07/12 06:49:53;;;;;;;;;5.00;5.00;;;;;22.36;56.15;100273.41;5080680;27;47098;-47
2021/07/12 06:52:19;;;;;;;;;6.33;6.00;;;;;22.33;56.69;100263.69;5062078;27;45433;-48
2021/07/12 06:54:47;;;;;;;;;7.67;6.67;;;;;22.32;56.75;100261.09;5062268;28;45500;-52
2021/07/12 06:57:16;;;;;;;;;8.00;6.00;;;;;22.29;56.80;100247.81;5077063;27;45291;-51
2021/07/12 06:59:42;;;;;;;;;6.33;6.00;;;;;22.27;56.83;100266.88;5080719;27;47298;-51
2021/07/12 07:02:10;;;;;;;;;6.00;6.00;;;;;22.28;57.05;100289.34;5061834;27;45350;-47
2021/07/12 07:04:37;;;;;;;;;5.00;5.00;;;;;22.27;57.32;100307.41;5062398;28;45374;-50
2021/07/12 07:07:03;;;;;;;;;9.00;9.00;;;;;22.28;56.93;100317.25;5075549;27;45360;-50
2021/07/12 07:09:29;;;;;;;;;9.00;8.75;;;;;22.28;56.87;100316.38;5080118;27;48123;-49
2021/07/12 07:11:54;;;;;;;;;7.67;6.33;;;;;22.27;57.43;100318.22;5080798;27;45274;-49
2021/07/12 07:14:20;;;;;;;;;7.00;7.00;;;;;22.25;57.47;100322.91;5080707;27;45381;-49
2021/07/12 07:16:46;;;;;;;;;8.75;7.50;;;;;22.26;57.17;100319.22;5062261;27;45422;-49
2021/07/12 07:19:12;;;;;;;;;4.33;4.33;;;;;22.23;57.81;100308.66;5080276;27;47068;-52
2021/07/12 07:21:37;;;;;;;;;7.33;7.33;;;;;22.24;57.88;100312.22;5081113;27;45611;-48
2021/07/12 07:24:03;;;;;;;;;6.00;6.00;;;;;22.24;58.08;100318.47;5059701;27;45734;-51
2021/07/12 07:26:29;;;;;;;;;7.50;7.00;;;;;22.28;58.09;100324.50;5060753;27;45445;-49
2021/07/12 07:28:56;;;;;;;;;6.00;6.00;;;;;22.30;58.19;100319.84;5080350;27;47903;-52
2021/07/12 07:31:23;;;;;;;;;8.75;6.75;;;;;22.30;58.14;100312.59;5078325;27;45435;-52
2021/07/12 07:33:49;;;;;;;;;6.00;6.00;;;;;22.32;57.88;100315.16;5080331;27;45718;-49
2021/07/12 07:36:14;;;;;;;;;7.00;7.00;;;;;22.31;58.17;100317.00;5080155;27;45444;-52
2021/07/12 07:38:41;;;;;;;;;7.67;7.67;;;;;22.33;58.28;100306.94;5082390;27;45674;-49
2021/07/12 07:41:06;;;;;;;;;8.00;6.67;;;;;22.36;58.74;100307.66;5062504;27;45500;-48
2021/07/12 07:43:32;;;;;;;;;8.00;8.00;;;;;22.39;58.24;100304.75;5081078;27;45414;-46
2021/07/12 07:45:57;;;;;;;;;8.00;8.00;;;;;22.41;58.04;100308.19;5064027;28;45500;-50
2021/07/12 07:48:23;;;;;;;;;7.00;7.00;;;;;22.44;58.38;100306.09;5062189;28;47045;-47
2021/07/12 07:50:50;;;;;;;;;8.25;8.00;;;;;22.47;58.92;100311.25;5079892;27;45381;-47
2021/07/12 07:53:16;;;;;;;;;9.00;7.25;;;;;22.52;58.87;100308.22;5080321;27;45443;-50
2021/07/12 07:55:42;;;;;;;;;8.75;8.25;;;;;22.57;58.36;100303.31;5062261;27;45282;-52
2021/07/12 07:58:08;;;;;;;;;7.75;7.75;;;;;22.61;58.76;100299.38;5061947;27;48501;-48
2021/07/12 08:00:34;;;;;;;;;7.75;7.50;;;;;22.61;58.52;100307.47;5079654;27;45362;-47
2021/07/12 08:03:01;;;;;;;;;8.25;8.25;;;;;22.64;59.02;100293.75;5067549;28;45386;-49
2021/07/12 08:05:26;;;;;;;;;7.75;6.50;;;;;22.68;58.91;100289.81;5056542;27;45334;-51
2021/07/12 08:07:52;;;;;;;;;6.67;6.67;;;;;22.71;58.23;100297.66;5079349;27;46490;-52
2021/07/12 08:10:19;;;;;;;;;9.00;8.75;;;;;22.73;58.30;100284.03;5059267;27;46397;-51
2021/07/12 08:12:46;;;;;;;;;11.50;11.50;;;;;22.78;58.83;100282.69;5061178;28;45507;-51
2021/07/12 08:15:13;;;;;;;;;9.50;8.25;;;;;22.81;58.55;100282.44;5079567;27;45374;-48
2021/07/12 08:17:40;;;;;;;;;9.00;9.00;;;;;22.84;58.23;100292.19;5079342;27;48313;-51
2021/07/12 08:20:10;;;;;;;;;9.00;9.00;;;;;22.87;58.22;100275.72;5079394;27;45228;-52
2021/07/12 08:22:35;;;;;;;;;11.00;11.00;;;;;22.91;58.02;100274.50;5061185;27;45386;-49
2021/07/12 08:25:03;;;;;;;;;9.00;9.00;;;;;22.97;58.25;100281.25;5060090;27;45573;-51
2021/07/12 08:27:31;;;;;;;;;8.75;8.50;;;;;22.97;58.09;100279.41;5078946;27;48532;-48
2021/07/12 08:29:57;;;;;;;;;8.50;8.00;;;;;22.97;57.81;100290.22;5078843;27;45360;-52
2021/07/12 08:32:22;;;;;;;;;8.75;6.50;;;;;22.95;58.19;100292.19;5076893;27;45372;-49
2021/07/12 08:34:48;;;;;;;;;11.00;8.00;;;;;22.95;58.28;100307.56;5079043;27;45358;-49
2021/07/12 08:37:14;;;;;;;;;8.00;8.00;;;;;22.93;58.13;100318.53;5059911;28;46035;-49
2021/07/12 08:39:40;;;;;;;;;8.00;7.00;;;;;22.90;58.22;100318.78;5080964;27;45448;-47
2021/07/12 08:42:06;;;;;;;;;7.33;5.33;;;;;22.87;58.31;100332.56;5078682;27;45357;-46
2021/07/12 08:44:32;;;;;;;;;4.67;4.67;;;;;22.83;58.01;100337.31;5081250;27;45666;-50
2021/07/12 08:46:57;;;;;;;;;7.00;7.00;;;;;22.83;58.39;100344.56;5074400;27;48160;-50
2021/07/12 08:49:24;;;;;;;;;4.00;4.00;;;;;22.83;58.38;100341.88;5056105;28;45398;-45
2021/07/12 08:51:50;;;;;;;;;8.00;7.50;;;;;22.81;58.46;100341.97;5073502;27;45261;-50
2021/07/12 08:54:16;;;;;;;;;8.00;7.25;;;;;22.79;58.66;100338.53;5056942;28;45264;-46
2021/07/12 08:56:42;;;;;;;;;14.50;12.50;;;;;22.78;58.65;100335.94;5073175;27;45712;-51
2021/07/12 08:59:27;;;;;;;;;11.25;11.25;;;;;22.75;58.66;100341.59;5078468;28;45993;-49
2021/07/12 09:02:16;;;;;;;;;9.00;9.00;;;;;22.72;58.92;100333.69;5078257;27;45447;-46
2021/07/12 09:04:44;;;;;;;;;10.75;10.75;;;;;22.69;59.08;100334.81;5078312;27;45665;-47
2021/07/12 09:07:14;;;;;;;;;8.50;8.50;;;;;22.71;58.82;100340.94;5078293;27;45565;-46
2021/07/12 09:09:40;;;;;;;;;9.25;8.25;;;;;22.73;59.21;100338.13;5078301;27;45417;-49
2021/07/12 09:12:08;;;;;;;;;12.25;11.25;;;;;22.75;59.04;100334.34;5078168;28;45382;-50
2021/07/12 09:14:39;;;;;;;;;8.00;8.00;;;;;22.74;58.59;100338.03;5078485;27;45312;-48
2021/07/12 09:17:08;;;;;;;;;15.00;14.00;;;;;22.73;59.20;100340.84;5077761;27;46788;-52
2021/07/12 09:19:36;;;;;;;;;13.00;13.00;;;;;22.73;59.27;100343.53;5078076;27;45208;-48
2021/07/12 09:22:13;;;;;;;;;10.25;10.25;;;;;22.71;59.07;100340.09;5078220;27;45480;-50
2021/07/12 09:24:56;;;;;;;;;10.00;9.00;;;;;22.72;59.49;100344.53;5059574;28;45609;-50
2021/07/12 09:27:24;;;;;;;;;13.25;12.75;;;;;22.75;59.32;100345.16;5077979;27;47251;-51
2021/07/12 09:29:52;;;;;;;;;10.75;9.50;;;;;22.81;59.14;100350.06;5077933;28;45363;-52
2021/07/12 09:32:20;;;;;;;;;13.00;10.75;;;;;22.88;59.51;100358.63;5076957;27;45656;-52
2021/07/12 09:34:47;;;;;;;;;10.00;9.00;;;;;22.90;59.12;100360.22;5078095;27;45380;-52
2021/07/12 09:37:21;;;;;;;;;9.50;9.50;;;;;22.92;59.22;100356.53;5077537;27;48043;-50
2021/07/12 09:39:52;;;;;;;;;10.50;10.50;;;;;22.95;59.62;100367.97;5076351;27;45727;-51
2021/07/12 09:42:22;;;;;;;;;11.50;9.50;;;;;23.00;59.21;100364.91;5042121;28;45766;-48
2021/07/12 09:44:56;;;;;;;;;8.25;8.25;;;;;23.04;59.24;100369.09;5078722;27;45488;-51
2021/07/12 09:47:25;;;;;;;;;8.33;8.33;;;;;23.09;59.12;100383.97;5057193;28;47457;-48
2021/07/12 09:49:58;;;;;;;;;8.50;8.50;;;;;23.11;58.99;100382.00;5059688;28;45398;-50
2021/07/12 09:52:24;;;;;;;;;7.67;7.67;;;;;23.15;59.03;100377.22;5059288;27;45525;-51
2021/07/12 09:54:49;;;;;;;;;9.75;9.00;;;;;23.20;58.79;100394.81;5059190;28;45342;-50
2021/07/12 09:57:20;;;;;;;;;9.50;9.50;;;;;23.25;59.05;100388.16;5077452;27;47087;-50
2021/07/12 09:59:56;;;;;;;;;10.75;9.25;;;;;23.25;58.67;100382.75;5079020;28;45317;-53
2021/07/12 10:02:24;;;;;;;;;9.50;9.50;;;;;23.22;59.01;100383.84;5061095;27;45611;-53
2021/07/12 10:04:57;;;;;;;;;11.75;8.50;;;;;23.17;59.42;100381.53;5062878;27;45499;-51
2021/07/12 10:07:23;;;;;;;;;9.00;9.00;;;;;23.14;59.06;100380.94;5080630;27;47871;-51
2021/07/12 10:09:49;;;;;;;;;6.00;5.00;;;;;;;;5062839;28;45372;-53
2021/07/12 10:12:15;;;;;;;;;8.33;7.00;;;;;23.06;59.41;100391.47;5081370;27;45294;-52
2021/07/12 10:14:41;;;;;;;;;8.00;7.33;;;;;23.04;59.29;100383.50;5081698;27;45480;-50
2021/07/12 10:17:09;;;;;;;;;5.33;5.33;;;;;23.05;59.42;100381.63;5081192;27;47143;-50
2021/07/12 10:19:35;;;;;;;;;7.33;6.00;;;;;23.01;59.20;100375.63;5063392;28;45946;-52
2021/07/12 10:22:01;;;;;;;;;6.00;6.00;;;;;23.00;59.01;100373.91;5080920;27;45406;-53
2021/07/12 10:24:34;;;;;;;;;6.33;6.00;;;;;23.01;58.97;100383.75;5062997;28;45472;-50
2021/07/12 10:27:01;;;;;;;;;6.00;6.00;;;;;23.06;58.96;100370.69;5080744;27;47077;-53
2021/07/12 10:29:31;;;;;;;;;5.25;5.25;;;;;23.12;59.14;100363.91;5062612;28;45487;-49
2021/07/12 10:31:57;;;;;;;;;7.33;6.67;;;;;23.20;59.43;100361.47;5080482;27;45621;-50
2021/07/12 10:34:48;;;;;;;;;6.00;6.00;;;;;23.38;59.35;100359.16;5081068;27;45410;-51
2021/07/12 10:37:30;;;;;;;;;7.75;6.50;;;;;23.53;59.31;100360.59;5080090;27;48071;-48
2021/07/12 10:40:05;;;;;;;;;9.67;9.67;;;;;23.67;59.37;100363.09;5061001;28;45409;-51
2021/07/12 10:42:45;;;;;;;;;9.00;7.00;;;;;23.78;58.96;100368.50;5080620;27;45389;-48
2021/07/12 10:45:17;;;;;;;;;7.50;7.50;;;;;23.84;59.08;100366.25;5064837;28;45520;-49
2021/07/12 10:48:14;;;;;;;;;8.67;8.67;;;;;23.87;58.81;100365.97;5077365;27;45341;-47
2021/07/12 10:50:49;;;;;;;;;11.33;9.67;;;;;23.91;58.89;100365.63;5058876;27;45447;-50
2021/07/12 10:53:15;;;;;;;;;13.50;13.50;;;;;23.90;58.88;100361.19;5080166;27;45687;-49
2021/07/12 10:56:19;;;;;;;;;9.67;9.33;;;;;23.78;59.03;100357.66;5080281;27;45322;-49
2021/07/12 10:58:45;;;;;;;;;11.25;11.25;;;;;23.70;59.26;100349.28;5079893;27;47263;-50
2021/07/12 11:01:17;;;;;;;;;11.75;11.75;;;;;23.65;59.56;100346.09;5079889;27;45532;-51
2021/07/12 11:03:45;;;;;;;;;9.50;9.50;;;;;23.61;59.47;100347.31;5080151;27;45459;-50
2021/07/12 11:06:17;;;;;;;;;14.00;14.00;;;;;23.63;59.88;100345.38;5080055;27;45758;-48
2021/07/12 11:08:59;;;;;;;;;13.25;12.50;;;;;23.71;59.95;100336.59;5074509;27;48430;-49
2021/07/12 11:11:24;;;;;;;;;12.50;12.50;;;;;23.87;59.46;100334.31;5078971;27;45246;-48
2021/07/12 11:13:59;;;;;;;;;11.25;11.00;;;;;23.97;59.38;100329.88;5080196;27;45576;-51
2021/07/12 11:16:46;;;;;;;;;14.50;12.50;;;;;24.04;59.21;100330.22;5080358;27;45462;-49
2021/07/12 11:19:28;;;;;;;;;10.25;9.75;;;;;24.12;58.79;100326.84;5079944;27;48049;-51
2021/07/12 11:22:15;;;;;;;;;12.75;12.75;;;;;24.26;58.73;100326.53;5061605;28;45347;-49
2021/07/12 11:25:11;;;;;;;;;12.25;12.25;;;;;24.37;58.42;100323.81;5079615;27;45252;-50
2021/07/12 11:27:38;;;;;;;;;14.25;13.25;;;;;24.53;58.49;100326.94;5061971;28;45497;-50
2021/07/12 11:30:30;;;;;;;;;13.25;13.25;;;;;24.65;57.79;100309.59;5079425;27;48497;-47
2021/07/12 11:32:56;;;;;;;;;11.25;11.25;;;;;24.73;57.49;100308.94;5074044;27;45419;-51